Time;durP1;ratioP1;P1;durP2;ratioP2;P2;SDS_P1;SDS_P2;PMS_P1;PMS_P2;Temp;Humidity;BMP_temperature;BMP_pressure;BME280_temperature;BME280_humidity;BME280_pressure;Samples;Min_cycle;Max_cycle;Signal;HPM_P1;HPM_P2
2023/09/30 00:00:08;;;;;;;;;8.75;7.25;;;;;22.71;100.00;102007.63;2103787;28;45899;-58
2023/09/30 00:01:10;;;;;;;;;6.20;6.00;;;;;22.72;100.00;102011.22;2094451;28;46904;-60
2023/09/30 00:02:11;;;;;;;;;6.80;5.40;;;;;22.77;100.00;102014.56;2103543;27;46337;-60
2023/09/30 00:03:11;;;;;;;;;6.50;5.75;;;;;22.77;100.00;102020.00;2111956;27;46312;-58
2023/09/30 00:04:12;;;;;;;;;8.00;6.25;;;;;22.83;100.00;102019.69;2102629;28;46762;-58
2023/09/30 00:05:14;;;;;;;;;4.25;4.25;;;;;22.79;100.00;102013.53;2103080;27;46566;-59
2023/09/30 00:06:15;;;;;;;;;7.20;5.60;;;;;22.77;100.00;102020.88;2112163;27;46911;-60
2023/09/30 00:07:15;;;;;;;;;4.25;4.25;;;;;22.75;100.00;102014.66;2112105;27;46310;-60
2023/09/30 00:08:15;;;;;;;;;7.50;5.75;;;;;22.84;100.00;102007.91;2112962;27;46627;-59
2023/09/30 00:09:16;;;;;;;;;7.00;6.25;;;;;22.80;100.00;102015.28;2100569;28;46394;-58
2023/09/30 00:10:16;;;;;;;;;5.25;5.00;;;;;22.73;100.00;102018.38;2101031;28;46238;-59
2023/09/30 00:11:19;;;;;;;;;5.33;4.33;;;;;22.70;100.00;102018.53;2094986;28;46179;-60
2023/09/30 00:12:20;;;;;;;;;5.50;4.75;;;;;22.69;100.00;102023.06;2095841;27;46694;-59
2023/09/30 00:13:21;;;;;;;;;6.00;4.67;;;;;22.69;100.00;102024.91;2112028;27;46231;-60
2023/09/30 00:14:21;;;;;;;;;4.00;4.00;;;;;22.62;100.00;102029.78;2107756;27;46660;-57
2023/09/30 00:15:22;;;;;;;;;7.00;6.67;;;;;22.59;100.00;102030.78;2108458;27;46200;-62
2023/09/30 00:16:22;;;;;;;;;6.00;6.00;;;;;22.58;100.00;102020.03;2112350;27;46674;-62
2023/09/30 00:17:23;;;;;;;;;10.25;9.25;;;;;22.57;100.00;102027.28;2111918;27;46247;-60
2023/09/30 00:18:23;;;;;;;;;5.33;5.33;;;;;22.71;100.00;102026.56;2110307;27;46104;-59
2023/09/30 00:19:23;;;;;;;;;7.75;7.75;;;;;22.75;100.00;102025.47;2110626;27;46441;-59
2023/09/30 00:20:24;;;;;;;;;8.00;6.00;;;;;22.82;100.00;102026.03;2113462;27;46441;-60
2023/09/30 00:21:24;;;;;;;;;6.67;6.67;;;;;22.80;100.00;102026.09;2109819;27;46293;-57
2023/09/30 00:22:25;;;;;;;;;6.75;6.00;;;;;22.79;100.00;102027.06;2113286;27;46365;-59
2023/09/30 00:23:25;;;;;;;;;6.25;6.00;;;;;22.79;100.00;102023.47;2111811;27;46249;-60
2023/09/30 00:24:26;;;;;;;;;5.00;5.00;;;;;22.79;100.00;102028.91;2102875;28;46545;-59
2023/09/30 00:25:27;;;;;;;;;8.00;7.00;;;;;22.77;100.00;102028.09;2100471;27;46840;-60
2023/09/30 00:26:27;;;;;;;;;8.60;7.40;;;;;22.75;100.00;102030.91;2112413;27;46384;-58
2023/09/30 00:27:28;;;;;;;;;9.00;8.00;;;;;22.75;100.00;102027.31;2111342;27;46325;-58
2023/09/30 00:28:28;;;;;;;;;7.50;7.00;;;;;22.83;100.00;102031.38;2112204;27;46309;-60
2023/09/30 00:29:28;;;;;;;;;1.75;1.75;;;;;22.77;100.00;102022.69;2110074;27;46379;-60
2023/09/30 00:30:29;;;;;;;;;8.50;8.00;;;;;22.74;100.00;102021.03;2113016;27;46611;-61
2023/09/30 00:31:29;;;;;;;;;5.75;5.75;;;;;22.74;100.00;102029.16;2111879;27;46806;-60
2023/09/30 00:32:29;;;;;;;;;5.50;5.50;;;;;22.73;100.00;102030.06;2112329;27;46845;-60
2023/09/30 00:33:30;;;;;;;;;6.75;6.75;;;;;22.72;100.00;102024.75;2111159;27;46544;-60
2023/09/30 00:34:35;;;;;;;;;10.00;9.00;;;;;22.72;100.00;102016.63;2113959;27;45982;-60
2023/09/30 00:35:36;;;;;;;;;7.20;7.00;;;;;22.69;100.00;102019.50;2109746;27;46430;-59
2023/09/30 00:36:36;;;;;;;;;8.00;7.00;;;;;22.66;100.00;102022.38;2113856;27;46594;-56
2023/09/30 00:37:41;;;;;;;;;9.75;8.75;;;;;22.69;100.00;102024.91;2113719;27;46343;-59
2023/09/30 00:38:41;;;;;;;;;9.20;8.40;;;;;22.63;100.00;102031.53;2114448;27;46780;-60
2023/09/30 00:39:42;;;;;;;;;8.75;7.25;;;;;22.60;100.00;102037.94;2113109;27;46303;-59
2023/09/30 00:40:49;;;;;;;;;9.50;7.75;;;;;22.61;100.00;102042.44;2113694;27;46370;-60
2023/09/30 00:41:49;;;;;;;;;9.80;8.80;;;;;22.75;100.00;102043.56;2111651;27;46925;-58
2023/09/30 00:42:50;;;;;;;;;7.75;7.75;;;;;22.64;100.00;102049.50;2114997;27;46735;-58
2023/09/30 00:43:50;;;;;;;;;7.25;7.25;;;;;22.61;100.00;102034.31;2109091;27;46840;-60
2023/09/30 00:44:50;;;;;;;;;7.25;7.25;;;;;22.61;100.00;102031.63;2114598;27;46702;-59
2023/09/30 00:46:01;;;;;;;;;8.00;8.00;;;;;22.64;100.00;102025.16;2112376;27;46561;-61
2023/09/30 00:47:02;;;;;;;;;8.60;8.60;;;;;22.64;100.00;102027.00;2113360;27;46502;-60
2023/09/30 00:48:02;;;;;;;;;8.50;8.50;;;;;22.63;100.00;102022.53;2114288;27;46182;-60
2023/09/30 00:49:03;;;;;;;;;8.75;8.00;;;;;22.63;100.00;102020.69;2113262;27;46801;-59
2023/09/30 00:50:08;;;;;;;;;10.00;8.75;;;;;22.64;100.00;102017.03;2113575;27;46650;-60
2023/09/30 00:51:08;;;;;;;;;7.80;7.80;;;;;22.66;100.00;102022.38;2112457;27;46744;-61
2023/09/30 00:52:09;;;;;;;;;5.50;4.75;;;;;22.67;100.00;102024.13;2113614;27;46256;-59
2023/09/30 00:53:10;;;;;;;;;7.00;7.00;;;;;22.69;100.00;102025.78;2114098;27;46721;-59
2023/09/30 00:54:10;;;;;;;;;7.80;7.80;;;;;22.71;100.00;102020.28;2112479;27;46701;-60
2023/09/30 00:55:11;;;;;;;;;11.00;8.00;;;;;22.76;100.00;102023.66;2113537;27;46663;-59
2023/09/30 00:56:13;;;;;;;;;6.20;5.40;;;;;22.73;100.00;102011.13;2103595;27;46394;-61
2023/09/30 00:57:14;;;;;;;;;6.60;6.60;;;;;22.74;100.00;102012.00;2105143;27;46911;-60
2023/09/30 00:58:15;;;;;;;;;9.00;8.00;;;;;22.67;100.00;102003.34;2114114;27;46398;-57
2023/09/30 00:59:16;;;;;;;;;7.20;6.80;;;;;22.66;100.00;102006.13;2113287;27;46956;-60
2023/09/30 01:00:19;;;;;;;;;9.20;8.00;;;;;22.63;100.00;101990.94;2113515;27;46481;-61
2023/09/30 01:01:20;;;;;;;;;6.20;6.20;;;;;22.65;100.00;101993.56;2112607;27;46644;-60
2023/09/30 01:02:22;;;;;;;;;4.40;4.40;;;;;22.63;100.00;101988.22;2114239;27;46962;-61
2023/09/30 01:03:23;;;;;;;;;6.00;5.40;;;;;22.63;100.00;101988.22;2113477;27;46330;-61
2023/09/30 01:04:23;;;;;;;;;4.75;4.75;;;;;22.61;100.00;101982.00;2113723;27;46251;-58
2023/09/30 01:05:23;;;;;;;;;6.00;6.00;;;;;22.61;100.00;101977.50;2112564;27;46802;-60
2023/09/30 01:06:24;;;;;;;;;6.50;6.50;;;;;22.59;100.00;101984.78;2114447;27;46713;-61
2023/09/30 01:07:25;;;;;;;;;8.25;7.25;;;;;22.59;100.00;101995.59;2112891;27;46658;-61
2023/09/30 01:08:27;;;;;;;;;8.00;6.75;;;;;22.46;100.00;102007.13;2113923;27;46771;-61
2023/09/30 01:09:28;;;;;;;;;9.40;6.60;;;;;22.43;100.00;102019.00;2108899;27;46887;-61
2023/09/30 01:10:28;;;;;;;;;5.25;5.00;;;;;22.42;100.00;102024.50;2112792;27;46363;-60
2023/09/30 01:11:29;;;;;;;;;5.00;4.00;;;;;22.43;100.00;102028.94;2113990;27;46715;-57
2023/09/30 01:12:30;;;;;;;;;8.00;7.60;;;;;22.40;100.00;102024.56;2111476;27;46698;-61
2023/09/30 01:13:37;;;;;;;;;7.25;7.25;;;;;22.39;100.00;102024.66;2112930;27;46124;-61
2023/09/30 01:14:42;;;;;;;;;12.80;8.80;;;;;22.38;100.00;102031.03;2114380;27;47116;-61
2023/09/30 01:15:42;;;;;;;;;7.60;6.60;;;;;22.37;100.00;102027.44;2112434;27;46678;-61
2023/09/30 01:16:43;;;;;;;;;11.50;9.75;;;;;22.36;100.00;102017.56;2116596;27;47024;-61
2023/09/30 01:17:43;;;;;;;;;13.50;13.50;;;;;22.35;100.00;102010.38;2112684;27;46765;-60
2023/09/30 01:18:43;;;;;;;;;13.75;10.25;;;;;22.35;100.00;102010.38;2114277;27;46053;-61
2023/09/30 01:19:44;;;;;;;;;12.25;12.25;;;;;22.37;100.00;102013.91;2112902;27;46279;-58
2023/09/30 01:20:44;;;;;;;;;15.50;14.00;;;;;22.38;100.00;102018.38;2114436;27;46118;-60
2023/09/30 01:21:48;;;;;;;;;13.00;11.25;;;;;22.38;100.00;102025.59;2115642;27;46501;-60
2023/09/30 01:22:48;;;;;;;;;11.40;11.40;;;;;22.38;100.00;102034.59;2108409;27;46636;-60
2023/09/30 01:23:49;;;;;;;;;12.00;10.50;;;;;22.39;100.00;102038.19;2112016;27;46584;-62
2023/09/30 01:24:49;;;;;;;;;11.25;11.00;;;;;22.39;100.00;102039.06;2114242;27;46571;-61
2023/09/30 01:25:49;;;;;;;;;11.50;10.50;;;;;22.38;100.00;102040.00;2111372;27;46247;-57
2023/09/30 01:26:50;;;;;;;;;9.25;9.25;;;;;22.38;100.00;102033.72;2114627;27;46628;-59
2023/09/30 01:27:54;;;;;;;;;11.25;11.25;;;;;22.37;100.00;102040.97;2110749;27;47199;-58
2023/09/30 01:28:54;;;;;;;;;9.00;9.00;;;;;22.36;100.00;102033.81;2114264;27;46583;-59
2023/09/30 01:29:55;;;;;;;;;11.25;7.00;;;;;22.35;100.00;102032.03;2112035;27;46324;-60
2023/09/30 01:30:55;;;;;;;;;10.25;10.25;;;;;22.35;100.00;102033.84;2112149;27;46804;-58
2023/09/30 01:31:55;;;;;;;;;9.00;9.00;;;;;22.35;100.00;102037.44;2111930;27;46317;-61
2023/09/30 01:32:55;;;;;;;;;9.50;9.50;;;;;22.38;100.00;102036.44;2113225;27;46584;-61
2023/09/30 01:33:56;;;;;;;;;10.00;7.00;;;;;22.38;100.00;102045.41;2112505;27;46277;-60
2023/09/30 01:34:56;;;;;;;;;9.25;9.25;;;;;22.39;100.00;102047.16;2114176;27;46514;-60
2023/09/30 01:35:57;;;;;;;;;11.50;10.50;;;;;22.39;100.00;102040.88;2112088;27;46709;-60
2023/09/30 01:36:57;;;;;;;;;11.75;10.00;;;;;22.38;100.00;102031.91;2114320;27;46639;-57
2023/09/30 01:37:58;;;;;;;;;11.50;9.50;;;;;22.40;100.00;102038.09;2112854;27;46327;-60
2023/09/30 01:38:58;;;;;;;;;8.00;7.25;;;;;22.40;100.00;102029.97;2113819;27;46943;-58
2023/09/30 01:39:59;;;;;;;;;7.50;7.50;;;;;22.43;100.00;102020.84;2112384;27;46547;-59
2023/09/30 01:40:59;;;;;;;;;9.75;8.75;;;;;22.44;100.00;102025.28;2104474;27;46181;-59
2023/09/30 01:42:00;;;;;;;;;9.75;9.75;;;;;22.45;100.00;102021.63;2103466;27;46453;-59
2023/09/30 01:43:00;;;;;;;;;5.25;5.25;;;;;22.46;100.00;102017.97;2113468;27;46612;-52
2023/09/30 01:44:01;;;;;;;;;9.50;9.50;;;;;22.46;100.00;102017.97;2113400;27;46820;-59
2023/09/30 01:45:01;;;;;;;;;7.00;7.00;;;;;22.54;100.00;102016.63;2111818;27;46695;-60
2023/09/30 01:46:01;;;;;;;;;8.25;8.25;;;;;22.46;100.00;102007.13;2111566;27;46299;-58
2023/09/30 01:47:02;;;;;;;;;12.00;8.50;;;;;22.44;100.00;102007.22;2113339;27;46792;-60
2023/09/30 01:48:02;;;;;;;;;12.50;8.50;;;;;22.43;100.00;101996.47;2114092;27;46281;-62
2023/09/30 01:49:05;;;;;;;;;9.00;9.00;;;;;22.44;100.00;101998.22;2113011;27;46815;-55
2023/09/30 01:50:06;;;;;;;;;10.20;8.60;;;;;22.45;100.00;101994.56;2113855;27;46746;-60
2023/09/30 01:51:07;;;;;;;;;8.00;7.75;;;;;22.44;100.00;101993.69;2112972;27;46254;-58
2023/09/30 01:52:07;;;;;;;;;10.50;9.50;;;;;22.55;100.00;101998.56;2113028;27;46337;-57
2023/09/30 01:53:09;;;;;;;;;11.50;9.00;;;;;22.56;100.00;102001.19;2112948;27;46822;-60
2023/09/30 01:54:10;;;;;;;;;9.20;9.00;;;;;22.58;100.00;101998.41;2113750;27;46983;-60
2023/09/30 01:55:11;;;;;;;;;9.20;9.00;;;;;22.57;100.00;102002.06;2112777;27;47031;-62
2023/09/30 01:56:11;;;;;;;;;8.50;8.50;;;;;22.54;100.00;101999.53;2112842;27;46284;-61
2023/09/30 01:57:11;;;;;;;;;11.50;9.50;;;;;22.52;100.00;101999.59;2112315;27;46782;-59
2023/09/30 01:58:12;;;;;;;;;15.75;11.00;;;;;22.51;100.00;102003.25;2114119;27;46562;-60
2023/09/30 01:59:12;;;;;;;;;10.25;10.25;;;;;22.50;100.00;102003.34;2112797;27;46575;-57
2023/09/30 02:00:13;;;;;;;;;8.25;8.25;;;;;22.50;100.00;102004.22;2113029;27;46481;-60
2023/09/30 02:01:13;;;;;;;;;9.00;9.00;;;;;22.51;100.00;102000.56;2112820;27;46834;-61
2023/09/30 02:02:13;;;;;;;;;8.50;8.50;;;;;22.51;100.00;101999.69;2111814;27;46295;-59
2023/09/30 02:03:14;;;;;;;;;9.75;9.00;;;;;22.49;100.00;101994.34;2112788;27;46500;-60
2023/09/30 02:04:17;;;;;;;;;7.00;6.75;;;;;22.48;100.00;101992.56;2114438;27;46260;-62
2023/09/30 02:05:18;;;;;;;;;10.60;8.00;;;;;22.48;100.00;101991.69;2113029;27;45715;-61
2023/09/30 02:06:19;;;;;;;;;9.40;8.00;;;;;22.47;100.00;101998.06;2114032;27;46644;-61
2023/09/30 02:07:19;;;;;;;;;11.25;11.25;;;;;22.47;100.00;101993.53;2112905;27;46562;-60
2023/09/30 02:08:19;;;;;;;;;12.25;11.50;;;;;22.45;100.00;101997.28;2113051;27;45965;-57
2023/09/30 02:09:20;;;;;;;;;11.00;9.00;;;;;22.40;100.00;101994.81;2112215;27;46160;-60
2023/09/30 02:10:20;;;;;;;;;11.00;9.25;;;;;22.38;100.00;101999.44;2114779;27;46872;-60
2023/09/30 02:11:20;;;;;;;;;13.25;10.75;;;;;22.36;100.00;102000.44;2113736;27;46437;-61
2023/09/30 02:12:21;;;;;;;;;11.00;11.00;;;;;22.35;100.00;102004.09;2112739;27;46647;-60
2023/09/30 02:13:21;;;;;;;;;8.50;8.00;;;;;22.30;100.00;101999.81;2112817;27;45987;-61
2023/09/30 02:14:22;;;;;;;;;7.25;7.25;;;;;22.32;100.00;102003.31;2113515;27;46472;-60
2023/09/30 02:15:22;;;;;;;;;9.00;7.75;;;;;22.30;100.00;102004.34;2111873;27;46150;-60
2023/09/30 02:16:22;;;;;;;;;11.25;9.00;;;;;22.28;100.00;102001.72;2114190;27;46645;-62
2023/09/30 02:17:23;;;;;;;;;9.25;9.25;;;;;22.24;100.00;102008.25;2110713;27;46219;-61
2023/09/30 02:18:23;;;;;;;;;10.00;9.00;;;;;22.13;100.00;102013.31;2112381;27;46303;-61
2023/09/30 02:19:24;;;;;;;;;7.50;7.00;;;;;22.12;100.00;102006.16;2111880;27;46136;-62
2023/09/30 02:20:25;;;;;;;;;8.50;7.00;;;;;22.10;100.00;102009.84;2113583;27;46665;-60
2023/09/30 02:21:26;;;;;;;;;8.80;8.80;;;;;22.07;100.00;102010.00;2112212;27;46270;-60
2023/09/30 02:22:28;;;;;;;;;9.00;6.60;;;;;22.03;100.00;102011.97;2113966;27;46759;-60
2023/09/30 02:23:28;;;;;;;;;8.40;8.00;;;;;22.11;100.00;102012.50;2112418;27;46838;-58
2023/09/30 02:24:28;;;;;;;;;9.75;8.00;;;;;22.13;100.00;102013.31;2113910;27;46939;-60
2023/09/30 02:25:30;;;;;;;;;10.25;10.25;;;;;22.14;100.00;102008.78;2112940;27;46151;-59
2023/09/30 02:26:30;;;;;;;;;10.20;9.60;;;;;22.07;100.00;102004.59;2113850;27;46365;-60
2023/09/30 02:27:31;;;;;;;;;9.75;8.25;;;;;22.10;100.00;102004.44;2112884;27;46781;-60
2023/09/30 02:28:33;;;;;;;;;10.00;10.00;;;;;22.01;100.00;102006.63;2113191;27;45870;-62
2023/09/30 02:29:34;;;;;;;;;10.40;10.40;;;;;22.01;100.00;102003.06;2112323;27;47242;-57
2023/09/30 02:30:35;;;;;;;;;10.00;10.00;;;;;21.99;100.00;102005.84;2114081;27;46293;-60
2023/09/30 02:31:36;;;;;;;;;6.00;6.00;;;;;21.99;100.00;102004.97;2112372;27;46626;-57
2023/09/30 02:32:45;;;;;;;;;11.75;10.00;;;;;22.00;100.00;102010.31;2113385;27;46271;-59
2023/09/30 02:33:46;;;;;;;;;10.40;9.20;;;;;22.03;100.00;102003.84;2110778;27;46722;-60
2023/09/30 02:34:47;;;;;;;;;10.00;9.75;;;;;22.00;100.00;102004.03;2111743;27;46617;-60
2023/09/30 02:35:47;;;;;;;;;10.25;7.75;;;;;22.08;100.00;102000.94;2111825;27;46267;-60
2023/09/30 02:36:48;;;;;;;;;11.75;10.00;;;;;22.13;100.00;101999.78;2114080;27;46824;-60
2023/09/30 02:37:52;;;;;;;;;9.00;9.00;;;;;22.13;100.00;101998.91;2112503;27;46753;-60
2023/09/30 02:38:52;;;;;;;;;10.40;8.20;;;;;22.13;100.00;101996.22;2114259;27;46898;-61
2023/09/30 02:39:53;;;;;;;;;11.00;9.00;;;;;22.10;100.00;102002.63;2111132;27;46677;-60
2023/09/30 02:40:54;;;;;;;;;10.40;9.40;;;;;22.09;100.00;102000.88;2114001;27;46901;-59
2023/09/30 02:41:54;;;;;;;;;11.00;9.00;;;;;22.06;100.00;101997.44;2110988;27;46411;-60
2023/09/30 02:42:54;;;;;;;;;7.75;7.75;;;;;22.04;100.00;101997.50;2113979;27;46518;-60
2023/09/30 02:43:55;;;;;;;;;11.00;10.00;;;;;22.02;100.00;101994.00;2112160;27;46327;-58
2023/09/30 02:44:55;;;;;;;;;8.00;6.50;;;;;22.02;100.00;101994.88;2114033;27;46250;-61
2023/09/30 02:45:55;;;;;;;;;9.50;9.00;;;;;22.03;100.00;101995.75;2102339;28;46294;-60
2023/09/30 02:46:56;;;;;;;;;11.00;9.75;;;;;22.04;100.00;101995.66;2103843;28;46669;-57
2023/09/30 02:47:56;;;;;;;;;10.00;10.00;;;;;22.07;100.00;101993.78;2111982;27;46627;-57
2023/09/30 02:48:56;;;;;;;;;9.50;8.50;;;;;22.07;100.00;101991.09;2112010;27;46853;-58
2023/09/30 02:49:57;;;;;;;;;8.50;8.50;;;;;22.08;100.00;101998.25;2113483;27;45779;-58
2023/09/30 02:50:57;;;;;;;;;9.00;9.00;;;;;22.08;100.00;101996.41;2110384;27;46655;-57
2023/09/30 02:51:57;;;;;;;;;7.25;7.25;;;;;22.10;100.00;102001.75;2111324;27;46579;-59
2023/09/30 02:52:58;;;;;;;;;11.50;10.50;;;;;22.12;100.00;101999.88;2111168;27;46539;-56
2023/09/30 02:53:58;;;;;;;;;10.50;9.75;;;;;22.13;100.00;102001.63;2110972;27;46232;-60
2023/09/30 02:54:58;;;;;;;;;10.50;10.50;;;;;22.14;100.00;102008.78;2107918;27;46848;-56
2023/09/30 02:56:00;;;;;;;;;9.25;7.75;;;;;22.14;100.00;102014.19;2112673;27;47862;-59
2023/09/30 02:57:03;;;;;;;;;9.20;8.60;;;;;22.14;100.00;102003.38;2104085;27;46337;-58
2023/09/30 02:58:04;;;;;;;;;11.60;10.20;;;;;22.15;100.00;102005.13;2094237;28;46716;-56
2023/09/30 02:59:04;;;;;;;;;9.00;9.00;;;;;22.15;100.00;102011.41;2103656;27;46570;-59
2023/09/30 03:00:23;;;;;;;;;12.50;10.00;;;;;22.15;100.00;102010.53;2109692;27;46122;-59
2023/09/30 03:01:23;;;;;;;;;8.40;8.40;;;;;22.10;100.00;102016.13;2110142;27;46642;-59
2023/09/30 03:02:23;;;;;;;;;13.50;11.75;;;;;22.06;100.00;102011.84;2112520;27;46765;-60
2023/09/30 03:03:25;;;;;;;;;10.00;9.00;;;;;22.03;100.00;102018.25;2111716;27;46280;-55
2023/09/30 03:04:28;;;;;;;;;11.80;10.00;;;;;22.03;100.00;102023.66;2104487;27;45872;-60
2023/09/30 03:05:30;;;;;;;;;6.80;6.80;;;;;22.00;100.00;102014.84;2094862;28;46638;-59
2023/09/30 03:06:30;;;;;;;;;11.40;11.00;;;;;21.97;100.00;102026.63;2104351;27;46473;-58
2023/09/30 03:07:33;;;;;;;;;13.75;12.75;;;;;21.96;100.00;102021.31;2112294;27;46216;-60
2023/09/30 03:08:35;;;;;;;;;8.20;8.20;;;;;21.95;100.00;102022.25;2103652;27;46814;-60
2023/09/30 03:09:38;;;;;;;;;11.20;10.20;;;;;21.95;100.00;102022.25;2085490;28;46734;-60
2023/09/30 03:10:40;;;;;;;;;7.80;7.80;;;;;21.93;100.00;102026.88;2091600;28;46928;-60
2023/09/30 03:11:42;;;;;;;;;9.00;8.80;;;;;21.93;100.00;102019.63;2111776;27;46867;-61
2023/09/30 03:12:42;;;;;;;;;12.40;11.40;;;;;21.92;100.00;102019.72;2114247;27;46592;-61
2023/09/30 03:13:43;;;;;;;;;8.00;7.75;;;;;21.92;100.00;102019.72;2112291;27;46349;-60
2023/09/30 03:14:44;;;;;;;;;10.25;9.50;;;;;21.92;100.00;102019.72;2113567;27;46243;-61
2023/09/30 03:15:44;;;;;;;;;8.80;8.00;;;;;21.93;100.00;102016.94;2111871;27;46341;-60
2023/09/30 03:16:44;;;;;;;;;9.50;8.50;;;;;21.96;100.00;102018.59;2113799;27;46195;-58
2023/09/30 03:17:45;;;;;;;;;9.00;8.00;;;;;21.97;100.00;102015.81;2111633;27;46751;-61
2023/09/30 03:18:45;;;;;;;;;7.50;7.50;;;;;21.97;100.00;102015.81;2119099;27;45815;-59
2023/09/30 03:19:45;;;;;;;;;8.00;6.75;;;;;21.99;100.00;102021.19;2111526;27;45891;-58
2023/09/30 03:20:47;;;;;;;;;7.50;7.50;;;;;22.01;100.00;102025.56;2113235;27;46592;-61
2023/09/30 03:21:48;;;;;;;;;10.60;8.60;;;;;22.03;100.00;102022.78;2110158;27;46738;-61
2023/09/30 03:22:48;;;;;;;;;8.00;7.75;;;;;22.04;100.00;102028.13;2106166;27;46716;-61
2023/09/30 03:23:48;;;;;;;;;11.75;9.25;;;;;22.06;100.00;102029.91;2110952;27;46181;-57
2023/09/30 03:24:49;;;;;;;;;8.00;8.00;;;;;22.05;100.00;102029.00;2113804;27;46659;-60
2023/09/30 03:25:49;;;;;;;;;8.50;8.50;;;;;22.04;100.00;102027.25;2111453;27;46463;-58
2023/09/30 03:26:50;;;;;;;;;10.25;7.25;;;;;22.02;100.00;102034.56;2119440;27;46253;-59
2023/09/30 03:27:50;;;;;;;;;9.25;9.25;;;;;21.99;100.00;102029.31;2111639;27;46505;-61
2023/09/30 03:28:51;;;;;;;;;8.75;8.25;;;;;21.99;100.00;102037.41;2113566;27;46605;-59
2023/09/30 03:29:51;;;;;;;;;8.00;6.50;;;;;22.00;100.00;102033.75;2112176;27;46272;-60
2023/09/30 03:30:51;;;;;;;;;10.00;7.00;;;;;21.98;100.00;102036.53;2112310;27;46219;-60
2023/09/30 03:31:52;;;;;;;;;8.25;7.00;;;;;21.95;100.00;102025.84;2108139;27;46316;-61
2023/09/30 03:32:52;;;;;;;;;5.25;5.00;;;;;21.96;100.00;102030.28;2113593;27;46122;-58
2023/09/30 03:33:56;;;;;;;;;8.50;8.50;;;;;21.95;100.00;102038.47;2111971;27;46376;-60
2023/09/30 03:34:58;;;;;;;;;9.20;8.80;;;;;21.91;100.00;102040.47;2113430;27;47251;-61
2023/09/30 03:35:59;;;;;;;;;10.60;6.20;;;;;21.88;100.00;102034.34;2110317;27;46396;-59
2023/09/30 03:36:59;;;;;;;;;7.50;6.50;;;;;21.88;100.00;102035.22;2112789;27;45589;-55
2023/09/30 03:38:01;;;;;;;;;6.25;5.25;;;;;21.89;100.00;102036.09;2115394;27;46635;-59
2023/09/30 03:39:06;;;;;;;;;9.00;7.40;;;;;21.88;100.00;102035.22;2113145;27;46797;-60
2023/09/30 03:41:36;;;;;;;;;8.20;8.20;;;;;21.83;100.00;102034.53;2076534;28;47352;-56
2023/09/30 03:42:38;;;;;;;;;6.40;6.00;;;;;21.75;100.00;102047.56;2078616;28;46844;-59
2023/09/30 03:43:41;;;;;;;;;7.20;6.00;;;;;21.72;100.00;102042.28;2077030;28;46288;-60
2023/09/30 03:44:41;;;;;;;;;6.60;5.20;;;;;21.71;100.00;102045.94;2086683;28;46838;-60
2023/09/30 03:45:42;;;;;;;;;6.00;6.00;;;;;21.72;100.00;102048.59;2051238;28;47291;-60
2023/09/30 03:46:43;;;;;;;;;6.50;6.50;;;;;21.74;100.00;102037.72;2054540;28;46314;-60
2023/09/30 03:47:43;;;;;;;;;6.75;6.75;;;;;21.73;100.00;102042.22;2076224;28;46592;-61
2023/09/30 03:48:44;;;;;;;;;7.75;7.75;;;;;21.69;100.00;102039.72;2078880;28;46406;-61
2023/09/30 03:49:45;;;;;;;;;7.60;7.60;;;;;21.67;100.00;102041.63;2075892;28;46534;-61
2023/09/30 03:50:45;;;;;;;;;8.00;8.00;;;;;21.65;100.00;102033.59;2077388;28;46293;-61
2023/09/30 03:51:46;;;;;;;;;7.00;7.00;;;;;21.66;100.00;102038.06;2053273;28;46698;-60
2023/09/30 03:52:47;;;;;;;;;10.40;9.00;;;;;21.66;100.00;102046.16;2049184;28;46407;-59
2023/09/30 03:53:47;;;;;;;;;10.75;10.50;;;;;21.66;100.00;102045.28;2076811;28;45153;-60
2023/09/30 03:54:48;;;;;;;;;7.00;7.00;;;;;21.65;100.00;102041.72;2079064;28;46662;-58
2023/09/30 03:55:48;;;;;;;;;10.50;10.00;;;;;21.65;100.00;102038.13;2076807;28;46051;-59
2023/09/30 03:56:48;;;;;;;;;6.75;6.75;;;;;21.66;100.00;102043.47;2079212;28;46486;-58
2023/09/30 03:57:50;;;;;;;;;7.75;7.50;;;;;21.67;100.00;102042.50;2076172;28;46210;-59
2023/09/30 03:58:52;;;;;;;;;7.80;7.80;;;;;21.68;100.00;102043.38;2078795;28;46461;-61
2023/09/30 03:59:53;;;;;;;;;10.20;9.20;;;;;21.68;100.00;102030.75;2069358;28;46427;-59
2023/09/30 04:00:54;;;;;;;;;8.75;8.75;;;;;21.65;100.00;102032.72;2072634;28;46233;-60
2023/09/30 04:01:54;;;;;;;;;6.80;4.00;;;;;21.66;100.00;102037.19;2077402;28;46456;-59
2023/09/30 04:02:58;;;;;;;;;9.50;9.50;;;;;21.63;100.00;102030.09;2079021;28;46219;-60
2023/09/30 04:03:58;;;;;;;;;8.40;8.40;;;;;21.65;100.00;102027.31;2076531;28;47508;-60
2023/09/30 04:05:03;;;;;;;;;8.00;8.00;;;;;21.64;100.00;102028.28;2083040;28;46640;-58
2023/09/30 04:06:03;;;;;;;;;10.00;9.00;;;;;21.63;100.00;102026.53;2085867;28;46497;-60
2023/09/30 04:07:05;;;;;;;;;9.75;9.75;;;;;21.65;100.00;102030.91;2086545;28;46341;-59
2023/09/30 04:08:05;;;;;;;;;11.40;11.40;;;;;21.66;100.00;102020.97;2079702;28;46766;-61
2023/09/30 04:09:12;;;;;;;;;7.00;7.00;;;;;21.66;100.00;102024.53;2077198;28;46628;-55
2023/09/30 04:10:12;;;;;;;;;9.40;9.40;;;;;21.64;100.00;102014.78;2077733;28;46561;-61
2023/09/30 04:11:17;;;;;;;;;9.75;8.75;;;;;21.62;100.00;102014.84;2078325;28;46531;-57
2023/09/30 04:12:18;;;;;;;;;12.00;11.00;;;;;21.60;100.00;102007.78;2076226;28;46637;-60
2023/09/30 04:13:20;;;;;;;;;9.00;8.25;;;;;21.57;100.00;102010.59;2079180;28;46239;-62
2023/09/30 04:14:21;;;;;;;;;7.20;7.00;;;;;21.54;100.00;101999.94;2079103;28;46316;-56
2023/09/30 04:15:21;;;;;;;;;9.25;6.75;;;;;21.51;100.00;101994.69;2079538;28;46843;-62
2023/09/30 04:16:22;;;;;;;;;12.25;8.50;;;;;21.49;100.00;101991.19;2078509;28;46745;-59
2023/09/30 04:17:23;;;;;;;;;7.20;7.20;;;;;21.48;100.00;101987.63;2078068;28;46447;-60
2023/09/30 04:18:26;;;;;;;;;7.25;7.25;;;;;21.45;100.00;101982.31;2078946;28;46739;-60
2023/09/30 04:19:26;;;;;;;;;6.20;5.40;;;;;21.43;100.00;101982.41;2107141;27;46227;-60
2023/09/30 04:20:27;;;;;;;;;2.75;2.75;;;;;21.42;100.00;101975.25;2113748;27;46337;-61
2023/09/30 04:21:29;;;;;;;;;9.00;9.00;;;;;21.40;100.00;101976.28;2111122;27;46510;-61
2023/09/30 04:22:31;;;;;;;;;7.20;6.60;;;;;21.41;100.00;101978.03;2112032;27;46641;-60
2023/09/30 04:23:31;;;;;;;;;7.60;7.60;;;;;21.40;100.00;101973.56;2111673;27;46701;-60
2023/09/30 04:24:31;;;;;;;;;9.00;9.00;;;;;21.38;100.00;101972.78;2111560;27;46842;-55
2023/09/30 04:25:32;;;;;;;;;9.75;8.50;;;;;21.37;100.00;101965.63;2110750;27;46113;-59
2023/09/30 04:26:32;;;;;;;;;8.75;7.50;;;;;21.35;100.00;101960.31;2113154;27;46173;-59
2023/09/30 04:27:33;;;;;;;;;8.50;8.50;;;;;21.35;100.00;101964.84;2111965;27;46274;-61
2023/09/30 04:28:34;;;;;;;;;6.50;6.50;;;;;21.36;100.00;101971.97;2112030;27;46446;-59
2023/09/30 04:29:34;;;;;;;;;10.40;8.80;;;;;21.33;100.00;101967.56;2110606;27;46602;-61
2023/09/30 04:30:35;;;;;;;;;6.75;6.75;;;;;21.33;100.00;101970.28;2105662;27;46240;-60
2023/09/30 04:31:35;;;;;;;;;5.75;5.25;;;;;21.31;100.00;101961.38;2105554;27;46251;-60
2023/09/30 04:32:36;;;;;;;;;9.00;8.25;;;;;21.32;100.00;101957.72;2111006;27;46742;-60
2023/09/30 04:33:37;;;;;;;;;7.40;7.40;;;;;21.32;100.00;101948.75;2110833;27;46368;-60
2023/09/30 04:34:37;;;;;;;;;10.00;6.00;;;;;21.32;100.00;101948.75;2113357;27;46460;-58
2023/09/30 04:35:38;;;;;;;;;6.25;5.50;;;;;21.33;100.00;101956.78;2109312;27;45582;-58
2023/09/30 04:36:38;;;;;;;;;10.25;9.25;;;;;21.38;100.00;101957.44;2113432;27;46610;-61
2023/09/30 04:37:38;;;;;;;;;7.50;7.50;;;;;21.44;100.00;101962.53;2111654;27;46670;-64
2023/09/30 04:38:39;;;;;;;;;7.25;7.25;;;;;21.42;100.00;101961.75;2112684;27;46309;-59
2023/09/30 04:39:39;;;;;;;;;7.75;7.50;;;;;21.44;100.00;101965.25;2111246;27;46394;-62
2023/09/30 04:40:40;;;;;;;;;9.25;8.25;;;;;21.44;100.00;101965.25;2112517;27;46341;-59